Time,TemperatureF,DewpointF,PressureIn,WindDirection,WindDirectionDegrees,WindSpeedMPH,WindSpeedGustMPH,Humidity,HourlyPrecipIn,Conditions,Clouds,dailyrainin,SolarRadiationWatts/m^2,SoftwareType,DateUTC
2013-10-03 00:00:00,65.4,55.7,30.29,SW,226,0.0,-999.0,71,0.00,,,0.00,0,WeatherHawk,2013-10-03 04:00:00,
2013-10-03 00:05:00,65.2,55.1,30.29,SW,226,0.0,-999.0,70,0.00,,,0.00,0,WeatherHawk,2013-10-03 04:05:00,
2013-10-03 00:10:00,65.6,55.5,30.30,SW,226,0.0,-999.0,70,0.00,,,0.00,1,WeatherHawk,2013-10-03 04:10:00,
2013-10-03 00:15:00,65.3,55.2,30.29,SW,217,0.0,-999.0,70,0.00,,,0.00,0,WeatherHawk,2013-10-03 04:15:00,
2013-10-03 00:20:00,65.4,55.3,30.29,SW,216,0.0,-999.0,70,0.00,,,0.00,0,WeatherHawk,2013-10-03 04:20:00,
2013-10-03 00:25:00,65.5,55.4,30.29,SW,217,0.0,-999.0,70,0.00,,,0.00,1,WeatherHawk,2013-10-03 04:25:00,
2013-10-03 00:30:00,66.4,56.3,30.30,NW,310,1.0,-999.0,70,0.00,,,0.00,0,WeatherHawk,2013-10-03 04:30:00,
2013-10-03 00:35:00,66.8,56.3,30.29,NW,315,0.0,-999.0,69,0.00,,,0.00,0,WeatherHawk,2013-10-03 04:35:00,
2013-10-03 00:40:00,66.0,54.7,30.29,NW,307,0.0,-999.0,67,0.00,,,0.00,1,WeatherHawk,2013-10-03 04:40:00,
2013-10-03 00:45:00,65.9,54.2,30.29,East,82,0.0,-999.0,66,0.00,,,0.00,0,WeatherHawk,2013-10-03 04:45:00,
2013-10-03 00:50:00,66.2,55.3,30.29,East,79,0.0,-999.0,68,0.00,,,0.00,0,WeatherHawk,2013-10-03 04:50:00,
2013-10-03 00:55:00,66.3,55.9,30.29,East,90,0.0,-999.0,69,0.00,,,0.00,0,WeatherHawk,2013-10-03 04:55:00,
2013-10-03 01:00:00,65.8,54.9,30.28,South,169,0.0,-999.0,68,0.00,,,0.00,0,WeatherHawk,2013-10-03 05:00:00,
2013-10-03 01:05:00,67.1,56.2,30.28,SW,231,0.0,-999.0,68,0.00,,,0.00,0,WeatherHawk,2013-10-03 05:05:00,
2013-10-03 01:10:00,66.7,55.0,30.28,North,349,0.0,-999.0,66,0.00,,,0.00,0,WeatherHawk,2013-10-03 05:10:00,
2013-10-03 01:15:00,66.0,53.9,30.29,NW,324,0.0,-999.0,65,0.00,,,0.00,0,WeatherHawk,2013-10-03 05:15:00,
2013-10-03 01:20:00,65.8,54.5,30.28,West,274,0.0,-999.0,67,0.00,,,0.00,1,WeatherHawk,2013-10-03 05:20:00,
2013-10-03 01:25:00,66.0,55.1,30.28,ENE,60,0.0,-999.0,68,0.00,,,0.00,0,WeatherHawk,2013-10-03 05:25:00,
2013-10-03 01:30:00,65.5,54.2,30.28,NNW,331,0.0,-999.0,67,0.00,,,0.00,0,WeatherHawk,2013-10-03 05:30:00,
2013-10-03 01:35:00,65.8,55.3,30.29,NW,319,0.0,-999.0,69,0.00,,,0.00,0,WeatherHawk,2013-10-03 05:35:00,
2013-10-03 01:40:00,65.5,55.0,30.28,NW,319,0.0,-999.0,69,0.00,,,0.00,1,WeatherHawk,2013-10-03 05:40:00,
2013-10-03 01:45:00,65.2,54.7,30.28,NW,319,0.0,-999.0,69,0.00,,,0.00,0,WeatherHawk,2013-10-03 05:45:00,
2013-10-03 01:50:00,65.4,55.3,30.28,WSW,253,0.0,-999.0,70,0.00,,,0.00,0,WeatherHawk,2013-10-03 05:50:00,
2013-10-03 01:55:00,65.3,55.7,30.28,WSW,253,0.0,-999.0,71,0.00,,,0.00,0,WeatherHawk,2013-10-03 05:55:00,
2013-10-03 02:00:00,65.1,55.5,30.28,South,180,0.0,-999.0,71,0.00,,,0.00,1,WeatherHawk,2013-10-03 06:00:00,
2013-10-03 02:05:00,65.5,56.3,30.28,South,180,0.0,-999.0,72,0.00,,,0.00,0,WeatherHawk,2013-10-03 06:05:00,
2013-10-03 02:10:00,65.1,55.4,30.29,South,180,0.0,-999.0,71,0.00,,,0.00,0,WeatherHawk,2013-10-03 06:10:00,
2013-10-03 02:15:00,65.1,55.5,30.28,South,180,0.0,-999.0,71,0.00,,,0.00,0,WeatherHawk,2013-10-03 06:15:00,
2013-10-03 02:20:00,65.4,56.1,30.28,South,180,0.0,-999.0,72,0.00,,,0.00,1,WeatherHawk,2013-10-03 06:20:00,
2013-10-03 02:25:00,65.3,56.0,30.28,West,274,0.0,-999.0,72,0.00,,,0.00,0,WeatherHawk,2013-10-03 06:25:00,
2013-10-03 02:30:00,65.3,56.1,30.28,West,274,0.0,-999.0,72,0.00,,,0.00,0,WeatherHawk,2013-10-03 06:30:00,
2013-10-03 02:35:00,64.8,55.6,30.29,West,274,0.0,-999.0,72,0.00,,,0.00,0,WeatherHawk,2013-10-03 06:35:00,
2013-10-03 02:40:00,64.9,55.7,30.28,West,274,0.0,-999.0,72,0.00,,,0.00,0,WeatherHawk,2013-10-03 06:40:00,
2013-10-03 02:45:00,65.0,55.8,30.29,West,274,0.0,-999.0,72,0.00,,,0.00,0,WeatherHawk,2013-10-03 06:45:00,
2013-10-03 02:50:00,64.7,55.9,30.28,West,274,0.0,-999.0,73,0.00,,,0.00,0,WeatherHawk,2013-10-03 06:50:00,
2013-10-03 02:55:00,64.6,55.7,30.28,West,272,0.0,-999.0,73,0.00,,,0.00,1,WeatherHawk,2013-10-03 06:55:00,
2013-10-03 03:00:00,64.6,56.1,30.28,West,272,0.0,-999.0,74,0.00,,,0.00,1,WeatherHawk,2013-10-03 07:00:00,
2013-10-03 03:05:00,64.9,56.4,30.28,NNE,31,0.0,-999.0,74,0.00,,,0.00,0,WeatherHawk,2013-10-03 07:05:00,
2013-10-03 03:10:00,64.9,56.4,30.27,ENE,66,0.0,-999.0,74,0.00,,,0.00,0,WeatherHawk,2013-10-03 07:10:00,
2013-10-03 03:15:00,65.1,56.6,30.27,East,82,0.0,-999.0,74,0.00,,,0.00,1,WeatherHawk,2013-10-03 07:15:00,
2013-10-03 03:20:00,65.5,56.6,30.28,ENE,68,0.0,-999.0,73,0.00,,,0.00,0,WeatherHawk,2013-10-03 07:20:00,
2013-10-03 03:25:00,65.8,56.2,30.29,NE,45,0.0,-999.0,71,0.00,,,0.00,0,WeatherHawk,2013-10-03 07:25:00,
2013-10-03 03:30:00,65.2,54.8,30.29,North,8,0.0,-999.0,69,0.00,,,0.00,0,WeatherHawk,2013-10-03 07:30:00,
2013-10-03 03:35:00,65.2,54.8,30.28,NE,49,0.0,-999.0,69,0.00,,,0.00,0,WeatherHawk,2013-10-03 07:35:00,
2013-10-03 03:40:00,65.2,55.2,30.28,North,4,0.0,-999.0,70,0.00,,,0.00,1,WeatherHawk,2013-10-03 07:40:00,
2013-10-03 03:45:00,65.2,54.8,30.27,NNW,327,0.0,-999.0,69,0.00,,,0.00,0,WeatherHawk,2013-10-03 07:45:00,
2013-10-03 03:50:00,65.4,54.9,30.27,NNW,327,0.0,-999.0,69,0.00,,,0.00,0,WeatherHawk,2013-10-03 07:50:00,
2013-10-03 03:55:00,65.9,55.4,30.27,NNW,327,0.0,-999.0,69,0.00,,,0.00,0,WeatherHawk,2013-10-03 07:55:00,
2013-10-03 04:00:00,65.6,54.3,30.27,NNW,327,0.0,-999.0,67,0.00,,,0.00,0,WeatherHawk,2013-10-03 08:00:00,
2013-10-03 04:05:00,66.0,55.1,30.29,North,6,0.0,-999.0,68,0.00,,,0.00,0,WeatherHawk,2013-10-03 08:05:00,
2013-10-03 04:10:00,66.2,54.9,30.28,North,6,0.0,-999.0,67,0.00,,,0.00,0,WeatherHawk,2013-10-03 08:10:00,
2013-10-03 04:15:00,65.2,53.9,30.28,North,6,0.0,-999.0,67,0.00,,,0.00,0,WeatherHawk,2013-10-03 08:15:00,
2013-10-03 04:20:00,65.7,54.9,30.28,NW,314,0.0,-999.0,68,0.00,,,0.00,0,WeatherHawk,2013-10-03 08:20:00,
2013-10-03 04:25:00,65.3,54.1,30.28,NW,314,0.0,-999.0,67,0.00,,,0.00,0,WeatherHawk,2013-10-03 08:25:00,
2013-10-03 04:30:00,65.7,54.8,30.28,NW,315,0.0,-999.0,68,0.00,,,0.00,0,WeatherHawk,2013-10-03 08:30:00,
2013-10-03 04:35:00,65.9,55.0,30.29,NW,315,0.0,-999.0,68,0.00,,,0.00,1,WeatherHawk,2013-10-03 08:35:00,
2013-10-03 04:40:00,65.9,55.0,30.28,NW,315,0.0,-999.0,68,0.00,,,0.00,0,WeatherHawk,2013-10-03 08:40:00,
2013-10-03 04:45:00,65.3,54.5,30.28,NW,315,0.0,-999.0,68,0.00,,,0.00,0,WeatherHawk,2013-10-03 08:45:00,
2013-10-03 04:50:00,65.2,54.8,30.27,NW,315,0.0,-999.0,69,0.00,,,0.00,0,WeatherHawk,2013-10-03 08:50:00,
2013-10-03 04:55:00,65.3,54.9,30.27,NNW,336,0.0,-999.0,69,0.00,,,0.00,0,WeatherHawk,2013-10-03 08:55:00,
2013-10-03 05:00:00,65.8,55.4,30.27,ENE,65,0.0,-999.0,69,0.00,,,0.00,0,WeatherHawk,2013-10-03 09:00:00,
2013-10-03 05:10:00,65.5,55.0,30.28,ESE,106,0.0,-999.0,69,0.00,,,0.00,0,WeatherHawk,2013-10-03 09:10:00,
2013-10-03 05:20:00,65.5,55.1,30.28,NNE,29,0.0,-999.0,69,0.00,,,0.00,1,WeatherHawk,2013-10-03 09:20:00,
2013-10-03 05:30:00,65.3,54.5,30.28,NNE,29,0.0,-999.0,68,0.00,,,0.00,0,WeatherHawk,2013-10-03 09:30:00,
2013-10-03 05:35:00,65.2,54.8,30.28,NNE,29,0.0,-999.0,69,0.00,,,0.00,0,WeatherHawk,2013-10-03 09:35:00,
2013-10-03 05:40:00,65.3,54.9,30.28,NNE,23,0.0,-999.0,69,0.00,,,0.00,0,WeatherHawk,2013-10-03 09:40:00,
2013-10-03 05:45:00,65.0,54.6,30.28,NNE,23,0.0,-999.0,69,0.00,,,0.00,0,WeatherHawk,2013-10-03 09:45:00,
2013-10-03 05:50:00,64.9,54.4,30.29,NNE,24,0.0,-999.0,69,0.00,,,0.00,0,WeatherHawk,2013-10-03 09:50:00,
2013-10-03 05:55:00,64.7,54.7,30.28,NNE,23,0.0,-999.0,70,0.00,,,0.00,0,WeatherHawk,2013-10-03 09:55:00,
2013-10-03 06:00:00,65.0,55.4,30.28,NNE,23,0.0,-999.0,71,0.00,,,0.00,0,WeatherHawk,2013-10-03 10:00:00,
2013-10-03 06:05:00,65.0,55.4,30.28,NNE,23,0.0,-999.0,71,0.00,,,0.00,0,WeatherHawk,2013-10-03 10:05:00,
2013-10-03 06:10:00,65.2,54.7,30.28,NNE,31,0.0,-999.0,69,0.00,,,0.00,0,WeatherHawk,2013-10-03 10:10:00,
2013-10-03 06:15:00,65.0,54.2,30.28,WNW,294,0.0,-999.0,68,0.00,,,0.00,0,WeatherHawk,2013-10-03 10:15:00,
2013-10-03 06:20:00,65.2,53.9,30.28,WNW,292,0.0,-999.0,67,0.00,,,0.00,0,WeatherHawk,2013-10-03 10:20:00,
2013-10-03 06:25:00,65.0,53.3,30.28,WNW,292,0.0,-999.0,66,0.00,,,0.00,0,WeatherHawk,2013-10-03 10:25:00,
2013-10-03 06:30:00,65.2,53.1,30.29,WNW,292,0.0,-999.0,65,0.00,,,0.00,0,WeatherHawk,2013-10-03 10:30:00,
2013-10-03 06:35:00,65.0,53.3,30.29,WNW,292,0.0,-999.0,66,0.00,,,0.00,0,WeatherHawk,2013-10-03 10:35:00,
2013-10-03 06:40:00,64.9,53.3,30.29,WNW,291,0.0,-999.0,66,0.00,,,0.00,0,WeatherHawk,2013-10-03 10:40:00,
2013-10-03 06:45:00,65.2,53.5,30.29,WNW,291,0.0,-999.0,66,0.00,,,0.00,0,WeatherHawk,2013-10-03 10:45:00,
2013-10-03 06:50:00,65.0,53.3,30.29,West,274,0.0,-999.0,66,0.00,,,0.00,0,WeatherHawk,2013-10-03 10:50:00,
2013-10-03 06:55:00,65.1,53.1,30.29,West,281,0.0,-999.0,65,0.00,,,0.00,0,WeatherHawk,2013-10-03 10:55:00,
2013-10-03 07:00:00,64.9,52.5,30.29,West,281,0.0,-999.0,64,0.00,,,0.00,0,WeatherHawk,2013-10-03 11:00:00,
2013-10-03 07:05:00,65.2,52.7,30.29,West,281,0.0,-999.0,64,0.00,,,0.00,0,WeatherHawk,2013-10-03 11:05:00,
2013-10-03 07:15:00,64.9,52.8,30.29,NNW,348,0.0,-999.0,65,0.00,,,0.00,0,WeatherHawk,2013-10-03 11:15:00,
2013-10-03 07:20:00,64.8,52.3,30.29,NNW,344,0.0,-999.0,64,0.00,,,0.00,1,WeatherHawk,2013-10-03 11:20:00,
2013-10-03 07:25:00,64.9,52.9,30.29,NNW,336,0.0,-999.0,65,0.00,,,0.00,2,WeatherHawk,2013-10-03 11:25:00,
2013-10-03 07:30:00,65.2,54.8,30.30,NE,36,0.0,-999.0,69,0.00,,,0.00,1,WeatherHawk,2013-10-03 11:30:00,
2013-10-03 07:35:00,64.6,53.0,30.29,North,9,0.0,-999.0,66,0.00,,,0.00,1,WeatherHawk,2013-10-03 11:35:00,
2013-10-03 07:40:00,65.0,53.4,30.30,NE,38,0.0,-999.0,66,0.00,,,0.00,5,WeatherHawk,2013-10-03 11:40:00,
2013-10-03 07:50:00,64.8,52.8,30.30,NW,315,0.0,-999.0,65,0.00,,,0.00,7,WeatherHawk,2013-10-03 11:50:00,
2013-10-03 07:55:00,65.0,53.7,30.30,SW,223,0.0,-999.0,67,0.00,,,0.00,12,WeatherHawk,2013-10-03 11:55:00,
2013-10-03 08:00:00,65.9,55.0,30.30,NE,53,0.0,-999.0,68,0.00,,,0.00,13,WeatherHawk,2013-10-03 12:00:00,
2013-10-03 08:10:00,66.2,53.2,30.30,NNW,334,0.0,-999.0,63,0.00,,,0.00,23,WeatherHawk,2013-10-03 12:10:00,
2013-10-03 08:15:00,65.7,51.9,30.30,NNW,346,0.0,-999.0,61,0.00,,,0.00,25,WeatherHawk,2013-10-03 12:15:00,
2013-10-03 08:25:00,66.1,51.8,30.30,West,280,0.0,-999.0,60,0.00,,,0.00,34,WeatherHawk,2013-10-03 12:25:00,
2013-10-03 08:30:00,66.2,51.9,30.30,South,171,0.0,-999.0,60,0.00,,,0.00,38,WeatherHawk,2013-10-03 12:30:00,
2013-10-03 08:35:00,65.9,52.5,30.31,SSE,149,1.0,-999.0,62,0.00,,,0.00,39,WeatherHawk,2013-10-03 12:35:00,
2013-10-03 08:40:00,66.9,52.5,30.30,WSW,258,0.0,-999.0,60,0.00,,,0.00,43,WeatherHawk,2013-10-03 12:40:00,
2013-10-03 08:45:00,66.5,51.7,30.31,NW,308,0.0,-999.0,59,0.00,,,0.00,52,WeatherHawk,2013-10-03 12:45:00,
2013-10-03 08:50:00,66.5,51.3,30.31,WSW,252,0.0,-999.0,58,0.00,,,0.00,58,WeatherHawk,2013-10-03 12:50:00,
2013-10-03 08:55:00,66.6,51.4,30.31,WSW,251,0.0,-999.0,58,0.00,,,0.00,74,WeatherHawk,2013-10-03 12:55:00,
2013-10-03 09:00:00,66.7,50.0,30.31,NNW,331,0.0,-999.0,55,0.00,,,0.00,66,WeatherHawk,2013-10-03 13:00:00,
2013-10-03 09:05:00,67.1,49.4,30.32,WSW,254,0.0,-999.0,53,0.00,,,0.00,70,WeatherHawk,2013-10-03 13:05:00,
2013-10-03 09:10:00,67.2,50.0,30.32,SSE,167,0.0,-999.0,54,0.00,,,0.00,83,WeatherHawk,2013-10-03 13:10:00,
2013-10-03 09:15:00,68.2,50.4,30.32,SSE,167,0.0,-999.0,53,0.00,,,0.00,147,WeatherHawk,2013-10-03 13:15:00,
2013-10-03 09:20:00,68.7,45.9,30.32,SSE,167,0.0,-999.0,44,0.00,,,0.00,253,WeatherHawk,2013-10-03 13:20:00,
2013-10-03 09:25:00,68.5,45.7,30.30,South,173,1.0,-999.0,44,0.00,,,0.00,288,WeatherHawk,2013-10-03 13:25:00,
2013-10-03 09:30:00,69.8,45.1,30.32,SW,214,0.0,-999.0,41,0.00,,,0.00,331,WeatherHawk,2013-10-03 13:30:00,
2013-10-03 09:35:00,70.1,43.3,30.30,South,186,0.0,-999.0,38,0.00,,,0.00,259,WeatherHawk,2013-10-03 13:35:00,
2013-10-03 09:40:00,70.5,42.9,30.30,SSE,163,0.0,-999.0,37,0.00,,,0.00,319,WeatherHawk,2013-10-03 13:40:00,
2013-10-03 09:45:00,72.7,43.5,30.31,SSE,165,1.0,-999.0,35,0.00,,,0.00,394,WeatherHawk,2013-10-03 13:45:00,
2013-10-03 09:50:00,71.1,41.3,30.29,SSE,152,0.0,-999.0,34,0.00,,,0.00,129,WeatherHawk,2013-10-03 13:50:00,
2013-10-03 09:55:00,70.3,42.1,30.29,SSE,158,0.0,-999.0,36,0.00,,,0.00,114,WeatherHawk,2013-10-03 13:55:00,
2013-10-03 10:05:00,71.5,43.9,30.29,East,84,0.0,-999.0,37,0.00,,,0.00,119,WeatherHawk,2013-10-03 14:05:00,
2013-10-03 10:10:00,70.9,44.0,30.29,SSE,149,0.0,-999.0,38,0.00,,,0.00,150,WeatherHawk,2013-10-03 14:10:00,
2013-10-03 10:15:00,70.6,44.5,30.30,SSW,208,0.0,-999.0,39,0.00,,,0.00,111,WeatherHawk,2013-10-03 14:15:00,
2013-10-03 10:20:00,70.9,44.7,30.29,SSW,196,0.0,-999.0,39,0.00,,,0.00,120,WeatherHawk,2013-10-03 14:20:00,
2013-10-03 10:25:00,71.0,44.8,30.30,SSE,151,0.0,-999.0,39,0.00,,,0.00,121,WeatherHawk,2013-10-03 14:25:00,
2013-10-03 10:30:00,72.2,45.9,30.30,WSW,250,1.0,-999.0,39,0.00,,,0.00,131,WeatherHawk,2013-10-03 14:30:00,
2013-10-03 10:35:00,72.3,43.9,30.30,West,266,0.0,-999.0,36,0.00,,,0.00,318,WeatherHawk,2013-10-03 14:35:00,
2013-10-03 10:40:00,74.1,39.8,30.30,SSE,162,0.0,-999.0,29,0.00,,,0.00,483,WeatherHawk,2013-10-03 14:40:00,
2013-10-03 10:45:00,73.6,37.5,30.29,SE,146,2.0,-999.0,27,0.00,,,0.00,504,WeatherHawk,2013-10-03 14:45:00,
2013-10-03 10:50:00,72.8,36.9,30.29,South,171,4.0,-999.0,27,0.00,,,0.00,414,WeatherHawk,2013-10-03 14:50:00,
2013-10-03 10:55:00,72.1,38.1,30.29,SSE,164,4.0,-999.0,29,0.00,,,0.00,158,WeatherHawk,2013-10-03 14:55:00,
2013-10-03 11:00:00,72.5,38.4,30.29,South,185,3.0,-999.0,29,0.00,,,0.00,258,WeatherHawk,2013-10-03 15:00:00,
2013-10-03 11:05:00,73.7,40.3,30.29,SSE,160,2.0,-999.0,30,0.00,,,0.00,260,WeatherHawk,2013-10-03 15:05:00,
2013-10-03 11:10:00,74.1,38.9,30.29,East,92,3.0,-999.0,28,0.00,,,0.00,461,WeatherHawk,2013-10-03 15:10:00,
2013-10-03 11:15:00,75.8,35.3,30.30,SSW,194,2.0,-999.0,23,0.00,,,0.00,535,WeatherHawk,2013-10-03 15:15:00,
2013-10-03 11:25:00,79.6,33.7,30.28,SSW,196,2.0,-999.0,19,0.00,,,0.00,513,WeatherHawk,2013-10-03 15:25:00,
2013-10-03 11:30:00,78.2,32.5,30.28,SSE,168,0.0,-999.0,19,0.00,,,0.00,589,WeatherHawk,2013-10-03 15:30:00,
2013-10-03 11:35:00,77.1,31.7,30.28,SSW,195,0.0,-999.0,19,0.00,,,0.00,284,WeatherHawk,2013-10-03 15:35:00,
2013-10-03 11:40:00,76.7,31.3,30.27,South,189,2.0,-999.0,19,0.00,,,0.00,391,WeatherHawk,2013-10-03 15:40:00,
2013-10-03 11:45:00,75.5,31.6,30.28,SSE,148,1.0,-999.0,20,0.00,,,0.00,335,WeatherHawk,2013-10-03 15:45:00,
2013-10-03 11:50:00,79.1,33.3,30.26,SW,217,0.0,-999.0,19,0.00,,,0.00,311,WeatherHawk,2013-10-03 15:50:00,
2013-10-03 11:55:00,76.8,32.6,30.26,SSE,156,4.0,-999.0,20,0.00,,,0.00,362,WeatherHawk,2013-10-03 15:55:00,
2013-10-03 12:00:00,76.7,33.8,30.27,South,171,0.0,-999.0,21,0.00,,,0.00,540,WeatherHawk,2013-10-03 16:00:00,
2013-10-03 12:05:00,81.0,30.6,30.27,WSW,253,1.0,-999.0,16,0.00,,,0.00,690,WeatherHawk,2013-10-03 16:05:00,
2013-10-03 12:10:00,77.8,24.8,30.26,South,177,3.0,-999.0,14,0.00,,,0.00,538,WeatherHawk,2013-10-03 16:10:00,
2013-10-03 12:15:00,78.9,28.9,30.25,SSE,157,1.0,-999.0,16,0.00,,,0.00,552,WeatherHawk,2013-10-03 16:15:00,
2013-10-03 12:20:00,77.1,22.5,30.25,South,179,3.0,-999.0,13,0.00,,,0.00,634,WeatherHawk,2013-10-03 16:20:00,
2013-10-03 12:25:00,81.9,22.2,30.23,WSW,241,0.0,-999.0,11,0.00,,,0.00,637,WeatherHawk,2013-10-03 16:25:00,
2013-10-03 12:30:00,79.9,16.0,30.24,SSE,154,2.0,-999.0,9,0.00,,,0.00,642,WeatherHawk,2013-10-03 16:30:00,
2013-10-03 12:35:00,80.1,20.9,30.24,SSE,152,6.0,-999.0,11,0.00,,,0.00,728,WeatherHawk,2013-10-03 16:35:00,
2013-10-03 12:40:00,81.2,23.7,30.24,SSE,168,2.0,-999.0,12,0.00,,,0.00,686,WeatherHawk,2013-10-03 16:40:00,
2013-10-03 12:45:00,81.2,21.7,30.23,SE,131,5.0,-999.0,11,0.00,,,0.00,706,WeatherHawk,2013-10-03 16:45:00,
2013-10-03 12:50:00,80.3,18.8,30.24,South,188,0.0,-999.0,10,0.00,,,0.00,418,WeatherHawk,2013-10-03 16:50:00,
2013-10-03 12:55:00,84.8,22.2,30.23,South,183,1.0,-999.0,10,0.00,,,0.00,659,WeatherHawk,2013-10-03 16:55:00,
2013-10-03 13:00:00,82.8,18.2,30.23,SE,143,0.0,-999.0,9,0.00,,,0.00,218,WeatherHawk,2013-10-03 17:00:00,
2013-10-03 13:05:00,87.3,21.6,30.23,WSW,240,0.0,-999.0,9,0.00,,,0.00,749,WeatherHawk,2013-10-03 17:05:00,
2013-10-03 13:10:00,83.8,21.5,30.23,WSW,250,1.0,-999.0,10,0.00,,,0.00,338,WeatherHawk,2013-10-03 17:10:00,
2013-10-03 13:15:00,83.6,23.5,30.22,SE,142,2.0,-999.0,11,0.00,,,0.00,675,WeatherHawk,2013-10-03 17:15:00,
2013-10-03 13:20:00,82.9,20.7,30.21,North,6,3.0,-999.0,10,0.00,,,0.00,609,WeatherHawk,2013-10-03 17:20:00,
2013-10-03 13:25:00,85.9,20.5,30.20,West,266,0.0,-999.0,9,0.00,,,0.00,414,WeatherHawk,2013-10-03 17:25:00,
2013-10-03 13:30:00,85.0,17.1,30.20,NW,314,0.0,-999.0,8,0.00,,,0.00,739,WeatherHawk,2013-10-03 17:30:00,
2013-10-03 13:35:00,84.4,19.4,30.21,South,174,0.0,-999.0,9,0.00,,,0.00,331,WeatherHawk,2013-10-03 17:35:00,
2013-10-03 13:45:00,84.6,22.0,30.20,West,274,0.0,-999.0,10,0.00,,,0.00,763,WeatherHawk,2013-10-03 17:45:00,
2013-10-03 13:55:00,83.7,16.1,30.19,ESE,121,4.0,-999.0,8,0.00,,,0.00,408,WeatherHawk,2013-10-03 17:55:00,
2013-10-03 14:00:00,80.4,21.1,30.19,SSE,164,2.0,-999.0,11,0.00,,,0.00,198,WeatherHawk,2013-10-03 18:00:00,
2013-10-03 14:05:00,81.1,23.7,30.19,SSE,161,0.0,-999.0,12,0.00,,,0.00,155,WeatherHawk,2013-10-03 18:05:00,
2013-10-03 14:10:00,80.9,25.4,30.20,West,266,0.0,-999.0,13,0.00,,,0.00,178,WeatherHawk,2013-10-03 18:10:00,
2013-10-03 14:20:00,77.9,30.9,30.22,West,263,4.0,-999.0,18,0.00,,,0.00,68,WeatherHawk,2013-10-03 18:20:00,
2013-10-03 14:25:00,77.1,36.5,30.22,North,0,3.0,-999.0,23,0.00,,,0.00,112,WeatherHawk,2013-10-03 18:25:00,
2013-10-03 14:30:00,75.5,39.2,30.23,NW,316,8.0,-999.0,27,0.00,,,0.00,182,WeatherHawk,2013-10-03 18:30:00,
2013-10-03 14:35:00,75.6,42.0,30.23,West,278,3.0,-999.0,30,0.00,,,0.00,187,WeatherHawk,2013-10-03 18:35:00,
2013-10-03 14:45:00,75.9,38.5,30.23,NW,313,1.0,-999.0,26,0.00,,,0.00,253,WeatherHawk,2013-10-03 18:45:00,
2013-10-03 14:50:00,76.7,36.1,30.23,NNW,334,0.0,-999.0,23,0.00,,,0.00,214,WeatherHawk,2013-10-03 18:50:00,
2013-10-03 14:55:00,77.8,37.0,30.24,East,81,0.0,-999.0,23,0.00,,,0.00,124,WeatherHawk,2013-10-03 18:55:00,
2013-10-03 15:00:00,77.5,36.7,30.24,North,0,0.0,-999.0,23,0.00,,,0.00,120,WeatherHawk,2013-10-03 19:00:00,
2013-10-03 15:05:00,76.0,37.6,30.24,SE,142,1.0,-999.0,25,0.00,,,0.00,202,WeatherHawk,2013-10-03 19:05:00,
2013-10-03 15:10:00,77.2,38.6,30.24,SSW,195,0.0,-999.0,25,0.00,,,0.00,203,WeatherHawk,2013-10-03 19:10:00,
2013-10-03 15:15:00,75.1,38.8,30.24,SSE,149,0.0,-999.0,27,0.00,,,0.00,176,WeatherHawk,2013-10-03 19:15:00,
2013-10-03 15:20:00,75.6,40.2,30.24,South,178,0.0,-999.0,28,0.00,,,0.00,180,WeatherHawk,2013-10-03 19:20:00,
2013-10-03 15:25:00,75.9,40.5,30.24,SSE,168,0.0,-999.0,28,0.00,,,0.00,197,WeatherHawk,2013-10-03 19:25:00,
2013-10-03 15:30:00,75.6,39.2,30.24,South,184,0.0,-999.0,27,0.00,,,0.00,192,WeatherHawk,2013-10-03 19:30:00,
2013-10-03 15:40:00,74.4,41.0,30.25,South,176,2.0,-999.0,30,0.00,,,0.00,172,WeatherHawk,2013-10-03 19:40:00,
2013-10-03 15:45:00,74.3,41.7,30.22,SSE,166,2.0,-999.0,31,0.00,,,0.00,117,WeatherHawk,2013-10-03 19:45:00,
2013-10-03 15:50:00,74.5,42.7,30.22,South,177,2.0,-999.0,32,0.00,,,0.00,62,WeatherHawk,2013-10-03 19:50:00,
2013-10-03 15:55:00,74.2,43.2,30.23,SSE,160,0.0,-999.0,33,0.00,,,0.00,67,WeatherHawk,2013-10-03 19:55:00,
2013-10-03 16:00:00,74.3,44.1,30.24,SSE,149,2.0,-999.0,34,0.00,,,0.00,67,WeatherHawk,2013-10-03 20:00:00,
2013-10-03 16:05:00,73.8,45.8,30.24,SSE,154,1.0,-999.0,37,0.00,,,0.00,58,WeatherHawk,2013-10-03 20:05:00,
2013-10-03 16:10:00,73.6,45.7,30.24,SSE,166,0.0,-999.0,37,0.00,,,0.00,50,WeatherHawk,2013-10-03 20:10:00,
2013-10-03 16:15:00,73.5,46.4,30.24,SSE,164,0.0,-999.0,38,0.00,,,0.00,49,WeatherHawk,2013-10-03 20:15:00,
2013-10-03 16:20:00,74.2,47.7,30.23,SSE,164,0.0,-999.0,39,0.00,,,0.00,46,WeatherHawk,2013-10-03 20:20:00,
2013-10-03 16:25:00,73.7,46.5,30.24,WSW,242,1.0,-999.0,38,0.00,,,0.00,42,WeatherHawk,2013-10-03 20:25:00,
2013-10-03 16:30:00,73.6,46.4,30.24,WNW,283,0.0,-999.0,38,0.00,,,0.00,41,WeatherHawk,2013-10-03 20:30:00,
2013-10-03 16:35:00,72.8,47.0,30.25,SSE,168,2.0,-999.0,40,0.00,,,0.00,49,WeatherHawk,2013-10-03 20:35:00,
2013-10-03 16:40:00,72.7,47.6,30.23,SE,145,0.0,-999.0,41,0.00,,,0.00,55,WeatherHawk,2013-10-03 20:40:00,
2013-10-03 16:45:00,72.7,47.0,30.23,SSE,163,0.0,-999.0,40,0.00,,,0.00,67,WeatherHawk,2013-10-03 20:45:00,
2013-10-03 16:50:00,72.5,48.7,30.23,West,280,3.0,-999.0,43,0.00,,,0.00,103,WeatherHawk,2013-10-03 20:50:00,
2013-10-03 16:55:00,72.1,48.9,30.23,West,263,2.0,-999.0,44,0.00,,,0.00,138,WeatherHawk,2013-10-03 20:55:00,
2013-10-03 17:00:00,72.0,47.0,30.24,NW,317,1.0,-999.0,41,0.00,,,0.00,138,WeatherHawk,2013-10-03 21:00:00,
2013-10-03 17:05:00,71.7,46.8,30.23,SW,217,0.0,-999.0,41,0.00,,,0.00,120,WeatherHawk,2013-10-03 21:05:00,
2013-10-03 17:10:00,71.9,46.9,30.24,WSW,240,0.0,-999.0,41,0.00,,,0.00,93,WeatherHawk,2013-10-03 21:10:00,
2013-10-03 17:15:00,72.3,47.9,30.24,NW,305,0.0,-999.0,42,0.00,,,0.00,84,WeatherHawk,2013-10-03 21:15:00,
2013-10-03 17:20:00,71.3,47.0,30.24,NW,313,0.0,-999.0,42,0.00,,,0.00,96,WeatherHawk,2013-10-03 21:20:00,
2013-10-03 17:25:00,72.0,47.0,30.23,West,260,0.0,-999.0,41,0.00,,,0.00,213,WeatherHawk,2013-10-03 21:25:00,
2013-10-03 17:30:00,72.8,46.4,30.24,SW,232,0.0,-999.0,39,0.00,,,0.00,165,WeatherHawk,2013-10-03 21:30:00,
2013-10-03 17:35:00,73.4,47.6,30.24,SW,222,0.0,-999.0,40,0.00,,,0.00,134,WeatherHawk,2013-10-03 21:35:00,
2013-10-03 17:40:00,72.4,46.7,30.24,SSE,168,0.0,-999.0,40,0.00,,,0.00,148,WeatherHawk,2013-10-03 21:40:00,
2013-10-03 17:45:00,73.2,45.4,30.26,South,170,0.0,-999.0,37,0.00,,,0.00,141,WeatherHawk,2013-10-03 21:45:00,
2013-10-03 17:50:00,71.8,48.1,30.25,South,173,2.0,-999.0,43,0.00,,,0.00,114,WeatherHawk,2013-10-03 21:50:00,
2013-10-03 17:55:00,71.8,48.0,30.25,ESE,107,1.0,-999.0,43,0.00,,,0.00,78,WeatherHawk,2013-10-03 21:55:00,
2013-10-03 18:00:00,71.7,47.4,30.26,SSE,168,1.0,-999.0,42,0.00,,,0.00,54,WeatherHawk,2013-10-03 22:00:00,
2013-10-03 18:05:00,71.9,46.9,30.25,South,178,0.0,-999.0,41,0.00,,,0.00,49,WeatherHawk,2013-10-03 22:05:00,
2013-10-03 18:10:00,71.6,46.0,30.25,SSW,199,0.0,-999.0,40,0.00,,,0.00,45,WeatherHawk,2013-10-03 22:10:00,
2013-10-03 18:15:00,71.7,46.1,30.25,SSW,201,0.0,-999.0,40,0.00,,,0.00,33,WeatherHawk,2013-10-03 22:15:00,
2013-10-03 18:20:00,70.8,48.4,30.24,NNE,26,0.0,-999.0,45,0.00,,,0.00,27,WeatherHawk,2013-10-03 22:20:00,
2013-10-03 18:30:00,70.9,49.0,30.25,SW,235,0.0,-999.0,46,0.00,,,0.00,30,WeatherHawk,2013-10-03 22:30:00,
2013-10-03 18:35:00,70.4,49.2,30.24,SW,235,0.0,-999.0,47,0.00,,,0.00,33,WeatherHawk,2013-10-03 22:35:00,
2013-10-03 18:40:00,70.2,50.2,30.24,SW,235,0.0,-999.0,49,0.00,,,0.00,27,WeatherHawk,2013-10-03 22:40:00,
2013-10-03 18:45:00,70.4,51.4,30.25,SW,235,0.0,-999.0,51,0.00,,,0.00,20,WeatherHawk,2013-10-03 22:45:00,
2013-10-03 18:50:00,70.7,51.2,30.25,WSW,248,0.0,-999.0,50,0.00,,,0.00,14,WeatherHawk,2013-10-03 22:50:00,
2013-10-03 18:55:00,70.6,51.0,30.25,WSW,248,0.0,-999.0,50,0.00,,,0.00,21,WeatherHawk,2013-10-03 22:55:00,
2013-10-03 19:00:00,69.9,51.4,30.25,WSW,242,0.0,-999.0,52,0.00,,,0.00,8,WeatherHawk,2013-10-03 23:00:00,
2013-10-03 19:05:00,69.6,52.2,30.25,WSW,242,0.0,-999.0,54,0.00,,,0.00,5,WeatherHawk,2013-10-03 23:05:00,
2013-10-03 19:10:00,69.4,53.5,30.25,WSW,242,0.0,-999.0,57,0.00,,,0.00,4,WeatherHawk,2013-10-03 23:10:00,
2013-10-03 19:15:00,69.2,54.7,30.24,WSW,242,0.0,-999.0,60,0.00,,,0.00,3,WeatherHawk,2013-10-03 23:15:00,
2013-10-03 19:20:00,68.8,54.8,30.24,WSW,242,0.0,-999.0,61,0.00,,,0.00,1,WeatherHawk,2013-10-03 23:20:00,
2013-10-03 19:25:00,68.6,55.5,30.24,South,185,0.0,-999.0,63,0.00,,,0.00,1,WeatherHawk,2013-10-03 23:25:00,
2013-10-03 19:30:00,68.4,55.3,30.25,South,185,0.0,-999.0,63,0.00,,,0.00,1,WeatherHawk,2013-10-03 23:30:00,
2013-10-03 19:35:00,68.1,55.8,30.24,South,185,0.0,-999.0,65,0.00,,,0.00,0,WeatherHawk,2013-10-03 23:35:00,
2013-10-03 19:40:00,68.1,56.8,30.25,South,185,0.0,-999.0,67,0.00,,,0.00,1,WeatherHawk,2013-10-03 23:40:00,
2013-10-03 19:45:00,68.1,57.1,30.25,South,185,0.0,-999.0,68,0.00,,,0.00,0,WeatherHawk,2013-10-03 23:45:00,
2013-10-03 19:50:00,67.8,57.3,30.24,South,185,0.0,-999.0,69,0.00,,,0.00,0,WeatherHawk,2013-10-03 23:50:00,
2013-10-03 19:55:00,67.5,57.3,30.25,South,185,0.0,-999.0,70,0.00,,,0.00,0,WeatherHawk,2013-10-03 23:55:00,
2013-10-03 20:00:00,67.7,57.9,30.25,South,185,0.0,-999.0,71,0.00,,,0.00,0,WeatherHawk,2013-10-04 00:00:00,
2013-10-03 20:05:00,67.2,57.5,30.25,South,185,0.0,-999.0,71,0.00,,,0.00,0,WeatherHawk,2013-10-04 00:05:00,
2013-10-03 20:10:00,67.1,57.7,30.25,NW,323,0.0,-999.0,72,0.00,,,0.00,0,WeatherHawk,2013-10-04 00:10:00,
2013-10-03 20:15:00,66.6,57.3,30.24,NW,323,0.0,-999.0,72,0.00,,,0.00,0,WeatherHawk,2013-10-04 00:15:00,
2013-10-03 20:20:00,66.8,57.9,30.24,NW,323,0.0,-999.0,73,0.00,,,0.00,1,WeatherHawk,2013-10-04 00:20:00,
2013-10-03 20:25:00,66.4,57.9,30.25,NW,323,0.0,-999.0,74,0.00,,,0.00,0,WeatherHawk,2013-10-04 00:25:00,
2013-10-03 20:30:00,66.2,57.6,30.25,NW,323,0.0,-999.0,74,0.00,,,0.00,0,WeatherHawk,2013-10-04 00:30:00,
2013-10-03 20:35:00,66.0,57.5,30.25,NW,323,0.0,-999.0,74,0.00,,,0.00,0,WeatherHawk,2013-10-04 00:35:00,
2013-10-03 20:40:00,66.6,58.4,30.26,West,271,0.0,-999.0,75,0.00,,,0.00,0,WeatherHawk,2013-10-04 00:40:00,
2013-10-03 20:45:00,66.0,58.2,30.27,West,264,0.0,-999.0,76,0.00,,,0.00,1,WeatherHawk,2013-10-04 00:45:00,
2013-10-03 20:50:00,66.2,58.4,30.26,West,264,0.0,-999.0,76,0.00,,,0.00,0,WeatherHawk,2013-10-04 00:50:00,
2013-10-03 20:55:00,66.3,58.8,30.27,West,264,0.0,-999.0,77,0.00,,,0.00,0,WeatherHawk,2013-10-04 00:55:00,
2013-10-03 21:00:00,65.9,58.5,30.27,West,264,0.0,-999.0,77,0.00,,,0.00,0,WeatherHawk,2013-10-04 01:00:00,
2013-10-03 21:10:00,65.8,58.8,30.26,NNW,346,0.0,-999.0,78,0.00,,,0.00,1,WeatherHawk,2013-10-04 01:10:00,
2013-10-03 21:15:00,65.8,59.1,30.27,NNW,346,0.0,-999.0,79,0.00,,,0.00,0,WeatherHawk,2013-10-04 01:15:00,
2013-10-03 21:20:00,65.7,59.0,30.26,NNW,346,0.0,-999.0,79,0.00,,,0.00,0,WeatherHawk,2013-10-04 01:20:00,
2013-10-03 21:25:00,65.8,59.1,30.27,North,349,0.0,-999.0,79,0.00,,,0.00,0,WeatherHawk,2013-10-04 01:25:00,
2013-10-03 21:35:00,65.3,58.6,30.27,North,349,0.0,-999.0,79,0.00,,,0.00,1,WeatherHawk,2013-10-04 01:35:00,
2013-10-03 21:40:00,65.3,58.6,30.28,North,349,0.0,-999.0,79,0.00,,,0.00,0,WeatherHawk,2013-10-04 01:40:00,
2013-10-03 21:45:00,65.1,58.4,30.28,North,349,0.0,-999.0,79,0.00,,,0.00,0,WeatherHawk,2013-10-04 01:45:00,
2013-10-03 21:50:00,65.0,58.4,30.26,North,349,0.0,-999.0,79,0.00,,,0.00,0,WeatherHawk,2013-10-04 01:50:00,
2013-10-03 21:55:00,65.2,58.9,30.27,NNE,25,0.0,-999.0,80,0.00,,,0.00,0,WeatherHawk,2013-10-04 01:55:00,
2013-10-03 22:05:00,65.4,59.4,30.28,NNE,25,0.0,-999.0,81,0.00,,,0.00,0,WeatherHawk,2013-10-04 02:05:00,
2013-10-03 22:10:00,64.8,58.8,30.28,NNE,24,0.0,-999.0,81,0.00,,,0.00,0,WeatherHawk,2013-10-04 02:10:00,
2013-10-03 22:15:00,65.4,59.4,30.28,NNE,24,0.0,-999.0,81,0.00,,,0.00,1,WeatherHawk,2013-10-04 02:15:00,
2013-10-03 22:20:00,65.1,59.5,30.28,North,2,0.0,-999.0,82,0.00,,,0.00,1,WeatherHawk,2013-10-04 02:20:00,
2013-10-03 22:25:00,64.8,59.1,30.28,North,2,0.0,-999.0,82,0.00,,,0.00,0,WeatherHawk,2013-10-04 02:25:00,
2013-10-03 22:30:00,64.5,58.8,30.29,North,2,0.0,-999.0,82,0.00,,,0.00,0,WeatherHawk,2013-10-04 02:30:00,
2013-10-03 22:35:00,64.2,58.9,30.28,North,4,0.0,-999.0,83,0.00,,,0.00,0,WeatherHawk,2013-10-04 02:35:00,
2013-10-03 22:40:00,64.4,59.1,30.29,North,4,0.0,-999.0,83,0.00,,,0.00,0,WeatherHawk,2013-10-04 02:40:00,
2013-10-03 22:45:00,64.7,59.4,30.28,North,4,0.0,-999.0,83,0.00,,,0.00,0,WeatherHawk,2013-10-04 02:45:00,
2013-10-03 22:50:00,64.9,60.0,30.29,WNW,300,0.0,-999.0,84,0.00,,,0.00,0,WeatherHawk,2013-10-04 02:50:00,
2013-10-03 22:55:00,64.4,59.5,30.29,WNW,290,0.0,-999.0,84,0.00,,,0.00,0,WeatherHawk,2013-10-04 02:55:00,
2013-10-03 23:00:00,64.4,59.5,30.29,WNW,290,0.0,-999.0,84,0.00,,,0.00,1,WeatherHawk,2013-10-04 03:00:00,
2013-10-03 23:05:00,64.5,59.8,30.30,WNW,289,0.0,-999.0,85,0.00,,,0.00,0,WeatherHawk,2013-10-04 03:05:00,
2013-10-03 23:10:00,63.9,59.3,30.30,WNW,289,0.0,-999.0,85,0.00,,,0.00,1,WeatherHawk,2013-10-04 03:10:00,
2013-10-03 23:15:00,64.2,59.6,30.29,WNW,289,0.0,-999.0,85,0.00,,,0.00,0,WeatherHawk,2013-10-04 03:15:00,
2013-10-03 23:20:00,64.3,59.7,30.29,WNW,284,0.0,-999.0,85,0.00,,,0.00,0,WeatherHawk,2013-10-04 03:20:00,
2013-10-03 23:25:00,64.3,59.7,30.30,WNW,284,0.0,-999.0,85,0.00,,,0.00,0,WeatherHawk,2013-10-04 03:25:00,
2013-10-03 23:30:00,64.7,60.4,30.29,WNW,284,0.0,-999.0,86,0.00,,,0.00,1,WeatherHawk,2013-10-04 03:30:00,
2013-10-03 23:35:00,64.5,60.2,30.30,WNW,284,0.0,-999.0,86,0.00,,,0.00,0,WeatherHawk,2013-10-04 03:35:00,
2013-10-03 23:40:00,64.3,60.0,30.30,WNW,284,0.0,-999.0,86,0.00,,,0.00,0,WeatherHawk,2013-10-04 03:40:00,
2013-10-03 23:45:00,64.3,60.0,30.30,WNW,284,0.0,-999.0,86,0.00,,,0.00,0,WeatherHawk,2013-10-04 03:45:00,
2013-10-03 23:50:00,64.5,60.5,30.30,WNW,284,0.0,-999.0,87,0.00,,,0.00,0,WeatherHawk,2013-10-04 03:50:00,
2013-10-03 23:55:00,64.3,60.3,30.29,WNW,284,0.0,-999.0,87,0.00,,,0.00,0,WeatherHawk,2013-10-04 03:55:00,